Time;durP1;ratioP1;P1;durP2;ratioP2;P2;SDS_P1;SDS_P2;PMS_P1;PMS_P2;Temp;Humidity;BMP_temperature;BMP_pressure;BME280_temperature;BME280_humidity;BME280_pressure;Samples;Min_cycle;Max_cycle;Signal;HPM_P1;HPM_P2
2023/02/07 00:02:14;;;;;;;15.35;7.35;;;;;;;-1.02;51.91;100969.53;4994843;28;20065;-73
2023/02/07 00:04:40;;;;;;;13.88;8.43;;;;;;;-1.06;52.84;100976.53;4993608;28;20503;-74
2023/02/07 00:07:05;;;;;;;14.50;8.18;;;;;;;-0.97;52.81;100977.09;4993558;28;20022;-73
2023/02/07 00:09:31;;;;;;;12.73;8.15;;;;;;;-1.06;52.98;100979.25;4994986;28;20486;-74
2023/02/07 00:11:56;;;;;;;14.10;8.57;;;;;;;-1.04;53.49;100988.13;4993661;28;20399;-74
2023/02/07 00:14:22;;;;;;;14.00;7.65;;;;;;;-1.05;53.15;100986.44;4993136;28;20035;-74
2023/02/07 00:16:47;;;;;;;13.52;7.85;;;;;;;-1.06;53.34;100988.38;4982359;28;20047;-74
2023/02/07 00:19:13;;;;;;;15.88;8.75;;;;;;;-0.96;53.24;100987.88;4975273;28;20027;-72
2023/02/07 00:21:39;;;;;;;15.82;8.57;;;;;;;-0.89;52.90;100988.69;4994715;28;20032;-74
2023/02/07 00:24:06;;;;;;;15.30;7.95;;;;;;;-0.78;52.22;100989.88;4994409;28;20386;-73
2023/02/07 00:26:32;;;;;;;16.92;8.95;;;;;;;-0.88;52.99;101000.50;4993899;28;20022;-74
2023/02/07 00:28:57;;;;;;;19.23;10.10;;;;;;;-0.88;53.44;101000.50;4994482;28;20029;-74
2023/02/07 00:31:26;;;;;;;20.67;9.45;;;;;;;-0.97;53.49;100999.06;4994125;28;20126;-74
2023/02/07 00:33:55;;;;;;;14.32;8.80;;;;;;;-1.04;53.29;100991.72;4985129;28;20027;-74
2023/02/07 00:36:22;;;;;;;12.82;8.55;;;;;;;-0.94;53.82;101004.97;4975660;28;20022;-74
2023/02/07 00:38:49;;;;;;;14.55;8.50;;;;;;;-0.79;53.87;101003.81;5005305;28;20128;-73
2023/02/07 00:41:18;;;;;;;14.75;8.77;;;;;;;-0.74;53.74;101001.25;4974943;28;20510;-73
2023/02/07 00:43:45;;;;;;;17.20;9.43;;;;;;;-0.87;53.78;101002.19;4987077;28;20394;-74
2023/02/07 00:46:11;;;;;;;13.45;8.18;;;;;;;-0.72;54.64;101005.47;4994132;28;20516;-73
2023/02/07 00:48:39;;;;;;;13.75;8.65;;;;;;;-0.93;53.89;101003.06;4994471;28;20038;-74
2023/02/07 00:51:04;;;;;;;17.17;9.73;;;;;;;-0.96;53.83;101003.53;4988119;28;20101;-73
2023/02/07 00:53:30;;;;;;;16.83;8.55;;;;;;;-0.83;54.01;101006.19;4985261;28;20118;-74
2023/02/07 00:55:56;;;;;;;14.55;7.95;;;;;;;-0.94;53.85;101010.47;4990819;28;20042;-74
2023/02/07 00:58:22;;;;;;;14.50;9.13;;;;;;;-1.17;54.78;101014.59;4981120;28;20117;-74
2023/02/07 01:00:48;;;;;;;15.20;9.07;;;;;;;-1.19;55.90;101016.72;4986613;28;20023;-74
2023/02/07 01:03:13;;;;;;;13.95;8.32;;;;;;;-1.27;56.55;101012.34;4974480;28;20062;-74
2023/02/07 01:05:39;;;;;;;14.35;9.07;;;;;;;-1.25;56.90;101020.34;4974734;28;20162;-74
2023/02/07 01:08:04;;;;;;;16.73;9.45;;;;;;;-1.28;57.18;101007.91;4983055;28;20116;-74
2023/02/07 01:10:30;;;;;;;17.58;9.70;;;;;;;-1.13;57.47;101015.00;4991903;28;20049;-74
2023/02/07 01:12:56;;;;;;;16.55;9.00;;;;;;;-0.94;57.67;101007.72;4990387;28;20041;-73
2023/02/07 01:15:22;;;;;;;15.73;9.05;;;;;;;-0.89;56.58;101007.06;4993790;28;20114;-74
2023/02/07 01:17:47;;;;;;;17.50;10.23;;;;;;;-0.88;56.41;100992.25;4978816;28;20754;-74
2023/02/07 01:20:13;;;;;;;20.23;9.05;;;;;;;-0.82;56.43;100996.88;4983318;28;20077;-73
2023/02/07 01:22:39;;;;;;;17.85;9.68;;;;;;;-0.76;56.64;101000.66;4992497;28;20054;-73
2023/02/07 01:25:08;;;;;;;19.70;10.18;;;;;;;-0.79;57.66;101004.69;4992687;28;20081;-74
2023/02/07 01:27:34;;;;;;;22.77;12.63;;;;;;;-0.65;57.46;100999.94;4978001;28;20498;-74
2023/02/07 01:30:00;;;;;;;23.92;12.70;;;;;;;-0.68;57.42;101005.84;4972818;28;20097;-73
2023/02/07 01:32:26;;;;;;;18.98;10.38;;;;;;;-0.97;58.24;101002.66;4976198;28;20041;-73
2023/02/07 01:34:51;;;;;;;16.52;9.40;;;;;;;-0.96;57.40;101003.53;4973914;28;20035;-73
2023/02/07 01:37:17;;;;;;;19.52;11.10;;;;;;;-1.20;58.47;101008.72;4981505;28;20045;-74
2023/02/07 01:39:42;;;;;;;20.67;11.10;;;;;;;-1.15;58.14;100995.16;4991402;28;20030;-74
2023/02/07 01:42:16;;;;;;;22.98;10.73;;;;;;;-1.50;59.33;100998.28;4979382;28;20895;-74
2023/02/07 01:44:41;;;;;;;22.50;11.55;;;;;;;-1.21;58.76;101012.50;4989899;28;20033;-74
2023/02/07 01:47:14;;;;;;;16.15;9.60;;;;;;;-1.19;59.23;100999.41;4982846;28;20397;-74
2023/02/07 01:49:40;;;;;;;16.55;9.10;;;;;;;-1.01;58.81;100995.94;4973801;28;20541;-74
2023/02/07 01:52:15;;;;;;;18.60;8.93;;;;;;;-1.18;58.09;100987.38;4973718;28;20042;-74
2023/02/07 01:54:44;;;;;;;15.32;8.68;;;;;;;-0.90;57.89;100998.00;4988612;28;20117;-74
2023/02/07 01:57:14;;;;;;;16.05;8.90;;;;;;;-0.85;57.70;100984.41;4986983;28;20042;-73
2023/02/07 01:59:42;;;;;;;16.42;9.05;;;;;;;-0.77;57.16;100991.53;4983460;28;20440;-74
2023/02/07 02:02:11;;;;;;;13.40;8.25;;;;;;;-0.76;56.70;100986.91;4974373;28;20038;-73
2023/02/07 02:04:38;;;;;;;20.90;9.45;;;;;;;-0.99;56.94;100997.38;4972339;28;20027;-73
2023/02/07 02:07:07;;;;;;;14.57;8.00;;;;;;;-1.28;55.49;101001.56;4979334;28;20034;-74
2023/02/07 02:09:32;;;;;;;16.00;7.75;;;;;;;-1.85;57.04;100996.72;4992840;28;20493;-74
2023/02/07 02:12:03;;;;;;;13.15;7.38;;;;;;;-1.68;57.27;100999.81;4991645;28;20037;-74
2023/02/07 02:14:44;;;;;;;18.58;8.55;;;;;;;-2.03;58.02;100994.63;4975152;28;20062;-74
2023/02/07 02:17:41;;;;;;;16.88;7.88;;;;;;;-2.18;59.27;101001.16;4983652;28;20042;-75
2023/02/07 02:20:36;;;;;;;15.38;8.25;;;;;;;-2.43;61.08;100999.06;4976584;28;20038;-76
2023/02/07 02:23:32;;;;;;;14.90;8.15;;;;;;;-2.58;62.09;101003.94;4990103;28;20501;-76
2023/02/07 02:26:36;;;;;;;16.73;9.15;;;;;;;-2.45;62.67;101003.94;4990821;28;20026;-75
2023/02/07 02:29:23;;;;;;;17.83;9.88;;;;;;;-2.61;64.01;101009.84;4973260;28;20038;-74
2023/02/07 02:32:24;;;;;;;18.20;9.35;;;;;;;-2.72;65.05;101006.66;4991490;28;20030;-77
2023/02/07 02:35:39;;;;;;;20.85;10.05;;;;;;;-2.58;64.69;101002.03;4972754;28;20070;-75
2023/02/07 02:38:34;;;;;;;19.30;8.98;;;;;;;-2.56;65.98;100997.19;4982050;28;20041;-76
2023/02/07 02:41:17;;;;;;;21.63;10.68;;;;;;;-2.30;66.02;101008.34;4992382;28;20553;-76
2023/02/07 02:43:58;;;;;;;21.20;11.90;;;;;;;-2.30;66.46;100997.38;4986620;28;20409;-74
2023/02/07 02:46:28;;;;;;;22.17;11.50;;;;;;;-2.17;66.06;101005.63;4990105;28;20124;-74
2023/02/07 02:48:56;;;;;;;25.23;13.05;;;;;;;-1.98;65.94;101005.78;4984294;28;20041;-75
2023/02/07 02:51:21;;;;;;;24.27;13.07;;;;;;;-2.14;66.44;101009.81;4971827;28;20031;-74
2023/02/07 02:53:54;;;;;;;24.67;11.65;;;;;;;-2.07;66.01;101004.31;4983676;28;20371;-75
2023/02/07 02:56:45;;;;;;;25.35;11.32;;;;;;;-1.91;65.73;101003.88;4991132;28;20434;-76
2023/02/07 02:59:29;;;;;;;23.98;11.90;;;;;;;-1.94;66.60;101004.31;4985283;28;20022;-74
2023/02/07 03:02:13;;;;;;;20.38;11.00;;;;;;;-1.70;66.63;101004.66;4982853;28;20545;-75
2023/02/07 03:05:13;;;;;;;20.70;10.70;;;;;;;-1.54;65.58;101008.00;4972644;28;20035;-73
2023/02/07 03:08:06;;;;;;;23.90;12.63;;;;;;;-1.44;65.41;101006.47;4971439;28;20482;-74
2023/02/07 03:10:46;;;;;;;26.45;13.82;;;;;;;-1.73;65.57;101000.47;4963849;28;20051;-74
2023/02/07 03:13:27;;;;;;;28.80;13.68;;;;;;;-2.28;66.67;101009.84;4981263;28;20425;-75
2023/02/07 03:16:02;;;;;;;34.55;16.27;;;;;;;-2.54;68.13;100999.69;4990520;28;20049;-76
2023/02/07 03:18:39;;;;;;;31.30;14.65;;;;;;;-2.87;70.12;101012.31;4992089;28;20061;-75
2023/02/07 03:21:20;;;;;;;46.03;17.80;;;;;;;-2.78;70.08;101007.47;4992209;28;20053;-75
2023/02/07 03:23:51;;;;;;;45.30;20.33;;;;;;;-2.88;70.94;101007.88;4988224;28;20050;-75
2023/02/07 03:26:17;;;;;;;35.72;14.32;;;;;;;-2.79;70.85;101005.78;4989818;28;20072;-76
2023/02/07 03:28:45;;;;;;;27.60;12.70;;;;;;;-2.77;70.54;101003.72;4992128;28;20018;-75
2023/02/07 03:31:15;;;;;;;29.42;14.35;;;;;;;-2.82;70.88;101004.34;4990448;28;20409;-76
2023/02/07 03:33:42;;;;;;;33.63;15.75;;;;;;;-2.79;71.59;101013.19;4988058;28;20046;-75
2023/02/07 03:36:15;;;;;;;28.05;14.20;;;;;;;-2.46;70.59;101012.38;4989508;28;20547;-75
2023/02/07 03:38:41;;;;;;;29.60;15.68;;;;;;;-2.77;71.56;101011.94;5000557;28;20033;-76
2023/02/07 03:41:14;;;;;;;26.10;14.38;;;;;;;-2.66;71.31;101007.72;4986951;28;20030;-75
2023/02/07 03:43:41;;;;;;;27.52;15.00;;;;;;;-2.40;70.29;101009.63;4976758;28;20034;-75
2023/02/07 03:46:08;;;;;;;27.65;13.98;;;;;;;-2.19;69.72;101020.59;4983969;28;20077;-74
2023/02/07 03:48:34;;;;;;;36.65;14.18;;;;;;;-2.07;69.33;101021.63;4991818;28;20477;-75
2023/02/07 03:51:00;;;;;;;27.38;12.85;;;;;;;-2.19;68.75;101017.84;4990876;28;20117;-74
2023/02/07 03:53:26;;;;;;;24.42;13.20;;;;;;;-2.06;68.43;101017.84;4985916;28;20477;-75
2023/02/07 03:55:52;;;;;;;32.67;15.43;;;;;;;-1.99;69.12;101017.81;4991921;28;20116;-74
2023/02/07 03:58:18;;;;;;;29.25;13.18;;;;;;;-1.84;68.46;101012.94;4990461;28;20553;-74
2023/02/07 04:00:43;;;;;;;25.52;11.82;;;;;;;-1.73;67.75;101018.81;4993485;28;20450;-74
2023/02/07 04:03:09;;;;;;;21.33;12.77;;;;;;;-1.67;66.46;101020.72;4993556;28;20030;-73
2023/02/07 04:05:35;;;;;;;22.05;11.07;;;;;;;-1.70;66.92;101015.63;4994958;28;20097;-74
2023/02/07 04:08:00;;;;;;;21.42;11.23;;;;;;;-1.68;66.70;101019.03;4989316;28;20089;-75
2023/02/07 04:10:26;;;;;;;23.50;12.77;;;;;;;-1.95;68.28;101024.56;4990976;28;20030;-74
2023/02/07 04:12:51;;;;;;;23.35;11.50;;;;;;;-2.04;69.30;101020.38;4990764;28;20030;-75
2023/02/07 04:15:17;;;;;;;24.77;12.52;;;;;;;-1.91;69.47;101036.81;4993420;28;20033;-75
2023/02/07 04:17:42;;;;;;;18.42;11.20;;;;;;;-1.85;69.17;101024.13;4992384;28;20035;-75
2023/02/07 04:20:12;;;;;;;24.42;11.25;;;;;;;-1.71;68.46;101024.94;4974039;28;20019;-74
2023/02/07 04:22:37;;;;;;;21.02;12.00;;;;;;;-1.75;68.29;101027.28;4984673;28;20041;-76
2023/02/07 04:25:03;;;;;;;22.05;10.48;;;;;;;-1.70;68.42;101021.13;4990816;28;20022;-75
2023/02/07 04:27:29;;;;;;;26.77;16.55;;;;;;;-1.58;68.05;101032.28;4993457;28;20029;-75
2023/02/07 04:29:55;;;;;;;24.15;12.82;;;;;;;-1.47;67.00;101037.13;4993390;28;20022;-75
2023/02/07 04:32:20;;;;;;;17.35;10.88;;;;;;;-1.36;66.58;101035.59;4994685;28;20026;-74
2023/02/07 04:34:46;;;;;;;25.50;12.10;;;;;;;-1.38;65.55;101037.72;4994609;28;20022;-74
2023/02/07 04:37:11;;;;;;;31.73;15.50;;;;;;;-1.40;65.53;101037.09;4975483;28;20061;-75
2023/02/07 04:39:37;;;;;;;38.33;18.52;;;;;;;-1.29;64.50;101041.06;4973723;28;20034;-74
2023/02/07 04:42:02;;;;;;;34.25;18.00;;;;;;;-1.30;64.40;101042.97;4977057;28;20065;-74
2023/02/07 04:44:28;;;;;;;32.92;17.05;;;;;;;-1.19;64.13;101046.94;4975198;28;20034;-74
2023/02/07 04:46:53;;;;;;;36.33;17.60;;;;;;;-1.27;63.50;101045.28;4975163;28;20501;-74
2023/02/07 04:49:19;;;;;;;48.45;17.80;;;;;;;-1.23;63.60;101047.59;4983578;28;20482;-75
2023/02/07 04:51:44;;;;;;;51.45;22.23;;;;;;;-1.17;63.36;101050.31;4993998;28;20053;-73
2023/02/07 04:54:10;;;;;;;45.08;19.88;;;;;;;-1.15;63.55;101050.09;4992634;28;20026;-73
2023/02/07 04:56:35;;;;;;;42.60;18.98;;;;;;;-1.31;63.58;101055.03;4994122;28;20031;-74
2023/02/07 04:59:01;;;;;;;33.83;17.08;;;;;;;-1.23;63.33;101064.06;4993140;28;20038;-74
2023/02/07 05:01:26;;;;;;;37.55;16.38;;;;;;;-1.11;63.34;101062.31;4986967;28;20057;-74
2023/02/07 05:03:52;;;;;;;33.97;15.77;;;;;;;-1.17;63.53;101054.97;4991314;28;20034;-74
2023/02/07 05:06:17;;;;;;;30.77;15.18;;;;;;;-1.11;63.02;101056.81;4988230;28;20057;-74
2023/02/07 05:08:43;;;;;;;43.97;17.90;;;;;;;-1.08;62.41;101066.53;4984519;28;20037;-72
2023/02/07 05:11:08;;;;;;;39.72;18.50;;;;;;;-1.09;62.52;101071.19;4972708;28;20022;-72
2023/02/07 05:13:34;;;;;;;31.58;15.85;;;;;;;-1.04;62.09;101068.63;4986480;28;20402;-71
2023/02/07 05:16:03;;;;;;;37.53;18.80;;;;;;;-1.27;63.81;101080.13;4980239;28;20039;-70
2023/02/07 05:18:29;;;;;;;60.40;26.40;;;;;;;-1.24;64.39;101079.72;4979734;28;20042;-71
2023/02/07 05:20:54;;;;;;;60.47;25.38;;;;;;;-1.19;64.38;101079.06;4972839;28;20128;-70
2023/02/07 05:23:20;;;;;;;52.22;21.15;;;;;;;-1.13;63.36;101069.94;4989984;28;20026;-69
2023/02/07 05:25:48;;;;;;;57.95;21.65;;;;;;;-1.05;63.54;101088.06;4992360;28;20041;-69
2023/02/07 05:28:13;;;;;;;69.63;27.33;;;;;;;-1.07;64.23;101082.81;4991774;28;20033;-71
2023/02/07 05:30:39;;;;;;;80.38;28.98;;;;;;;-1.12;64.29;101079.84;4992985;28;20030;-70
2023/02/07 05:33:04;;;;;;;73.90;29.42;;;;;;;-1.05;63.52;101085.31;4990843;28;20417;-71
2023/02/07 05:35:34;;;;;;;87.63;28.45;;;;;;;-1.09;63.97;101082.16;4988710;28;20089;-70
2023/02/07 05:38:00;;;;;;;61.47;26.73;;;;;;;-1.07;63.11;101082.81;4989217;28;20115;-69
2023/02/07 05:40:26;;;;;;;74.32;26.58;;;;;;;-1.10;62.62;101085.97;4991488;28;20124;-70
2023/02/07 05:42:52;;;;;;;61.83;25.60;;;;;;;-1.09;62.95;101087.66;4989401;28;20482;-69
2023/02/07 05:45:20;;;;;;;70.80;28.10;;;;;;;-1.10;62.23;101096.13;4991391;28;20121;-70
2023/02/07 05:47:45;;;;;;;77.90;31.23;;;;;;;-1.43;61.50;101089.69;4983275;28;20464;-72
2023/02/07 05:50:11;;;;;;;107.50;44.17;;;;;;;-1.48;62.12;101093.09;4974389;28;20042;-72
2023/02/07 05:52:36;;;;;;;78.82;31.25;;;;;;;-1.45;62.00;101094.53;4973925;28;20037;-70
2023/02/07 05:55:03;;;;;;;92.97;37.95;;;;;;;-1.38;62.11;101100.03;4986525;28;20040;-70
2023/02/07 05:57:28;;;;;;;111.35;43.13;;;;;;;-1.39;62.39;101103.81;4986058;28;20048;-69
2023/02/07 05:59:54;;;;;;;107.05;37.15;;;;;;;-1.43;62.65;101111.66;4978506;28;20031;-70
2023/02/07 06:02:20;;;;;;;70.80;25.25;;;;;;;-1.47;62.99;101118.63;4984588;28;20049;-70
2023/02/07 06:04:45;;;;;;;70.60;29.30;;;;;;;-1.39;62.85;101114.78;4988503;28;20033;-72
2023/02/07 06:07:11;;;;;;;66.93;31.42;;;;;;;-1.35;63.64;101114.16;4983835;28;20042;-71
2023/02/07 06:09:36;;;;;;;61.17;24.70;;;;;;;-1.44;63.46;101108.06;4986326;28;20034;-70
2023/02/07 06:12:02;;;;;;;50.53;25.00;;;;;;;-1.32;62.58;101113.75;4989124;28;20457;-69
2023/02/07 06:14:27;;;;;;;57.70;24.67;;;;;;;-1.27;61.91;101110.31;4989502;28;20041;-70
2023/02/07 06:16:52;;;;;;;56.78;28.67;;;;;;;-1.19;62.15;101114.75;4977800;28;20482;-72
2023/02/07 06:19:18;;;;;;;71.75;33.92;;;;;;;-1.12;61.96;101121.06;4982064;28;20524;-70
2023/02/07 06:21:43;;;;;;;70.28;35.10;;;;;;;-1.11;61.79;101128.22;4987174;28;20030;-70
2023/02/07 06:24:09;;;;;;;74.82;37.13;;;;;;;-1.13;61.78;101114.75;4984489;28;20022;-70
2023/02/07 06:26:34;;;;;;;58.25;25.13;;;;;;;-1.11;62.59;101119.16;4981395;28;20026;-71
2023/02/07 06:29:00;;;;;;;46.97;23.23;;;;;;;-1.06;62.25;101120.22;4987200;28;20053;-70
2023/02/07 06:31:25;;;;;;;53.38;21.88;;;;;;;-1.11;61.23;101120.00;4985258;28;20081;-70
2023/02/07 06:33:51;;;;;;;36.65;18.65;;;;;;;-1.36;61.36;101125.38;4985425;28;20037;-70
2023/02/07 06:36:16;;;;;;;44.30;20.60;;;;;;;-1.16;61.72;101114.31;4983323;28;20042;-70
2023/02/07 06:38:42;;;;;;;48.42;24.10;;;;;;;-1.07;62.12;101115.78;4980783;28;20557;-72
2023/02/07 06:41:10;;;;;;;49.00;23.55;;;;;;;-1.02;61.32;101126.94;4984785;28;20041;-75
2023/02/07 06:43:36;;;;;;;45.78;25.05;;;;;;;-0.91;61.49;101128.16;4987127;28;20490;-75
2023/02/07 06:46:02;;;;;;;65.00;33.28;;;;;;;-0.77;61.06;101128.94;4976661;28;20042;-73
2023/02/07 06:48:27;;;;;;;80.90;42.67;;;;;;;-0.66;60.80;101134.81;4986871;28;20042;-77
2023/02/07 06:50:53;;;;;;;52.50;28.40;;;;;;;-1.02;60.41;101137.94;4987133;28;20043;-77
2023/02/07 06:53:18;;;;;;;42.38;21.95;;;;;;;-1.18;58.79;101130.19;4975389;28;20504;-75
2023/02/07 06:55:44;;;;;;;36.50;20.58;;;;;;;-1.80;60.30;101130.50;4980529;28;20034;-72
2023/02/07 06:58:09;;;;;;;43.17;23.08;;;;;;;-1.78;60.11;101131.13;4988304;28;20038;-72
2023/02/07 07:00:35;;;;;;;66.93;27.60;;;;;;;-2.05;61.12;101131.09;4980696;28;20580;-72
2023/02/07 07:03:01;;;;;;;87.93;37.90;;;;;;;-1.99;61.32;101128.38;4987932;28;20037;-68
2023/02/07 07:05:28;;;;;;;80.43;30.85;;;;;;;-1.99;62.65;101127.53;4988239;28;20068;-68
2023/02/07 07:07:54;;;;;;;64.57;27.17;;;;;;;-1.88;62.18;101121.41;4987044;28;20037;-68
2023/02/07 07:10:19;;;;;;;73.30;32.60;;;;;;;-1.54;61.95;101124.13;4977283;28;20061;-69
2023/02/07 07:12:46;;;;;;;36.75;19.67;;;;;;;-1.35;61.32;101118.81;4984137;28;20034;-72
2023/02/07 07:15:11;;;;;;;24.02;13.00;;;;;;;-1.33;57.87;101125.78;4982044;28;20429;-71
2023/02/07 07:17:37;;;;;;;26.35;12.85;;;;;;;-1.54;56.57;101120.53;4983013;28;20034;-71
2023/02/07 07:20:03;;;;;;;28.92;13.20;;;;;;;-1.52;56.66;101124.75;4969077;28;20535;-71
2023/02/07 07:22:29;;;;;;;33.45;12.45;;;;;;;-1.38;56.02;101122.81;4974846;28;20105;-72
2023/02/07 07:24:54;;;;;;;59.25;20.25;;;;;;;-1.63;57.08;101115.28;4977829;28;20034;-70
2023/02/07 07:27:20;;;;;;;25.55;13.40;;;;;;;-1.43;56.40;101120.72;4979031;28;20035;-72
2023/02/07 07:29:46;;;;;;;22.73;11.88;;;;;;;-1.23;55.06;101124.47;4980739;28;20093;-70
2023/02/07 07:32:11;;;;;;;44.55;17.90;;;;;;;-1.35;55.92;101118.81;4986209;28;20129;-73
2023/02/07 07:34:37;;;;;;;24.20;11.95;;;;;;;-1.52;54.95;101110.19;4989361;28;20155;-72
2023/02/07 07:37:03;;;;;;;25.23;12.02;;;;;;;-1.34;54.15;101129.56;4995528;28;20125;-71
2023/02/07 07:39:29;;;;;;;18.13;9.82;;;;;;;-1.59;54.55;101124.75;4988746;28;20029;-71
2023/02/07 07:41:54;;;;;;;24.88;11.65;;;;;;;-1.31;55.05;101118.16;4985345;28;20038;-72
2023/02/07 07:44:20;;;;;;;17.00;10.25;;;;;;;-1.11;55.00;101130.97;4983221;28;20026;-71
2023/02/07 07:46:46;;;;;;;23.38;11.70;;;;;;;-0.86;53.49;101122.88;4990312;28;20081;-72
2023/02/07 07:49:11;;;;;;;18.90;10.70;;;;;;;-0.72;53.79;101120.91;4991051;28;20050;-73
2023/02/07 07:51:36;;;;;;;21.23;10.48;;;;;;;-0.67;53.03;101122.16;4990786;28;20038;-71
2023/02/07 07:54:02;;;;;;;13.90;8.23;;;;;;;-0.67;53.11;101128.47;4994169;28;20050;-70
2023/02/07 07:56:31;;;;;;;15.65;9.32;;;;;;;-0.45;52.65;101120.75;4991059;28;20465;-70
2023/02/07 07:58:57;;;;;;;16.98;10.45;;;;;;;-0.55;52.90;101120.38;4993186;28;20403;-70
2023/02/07 08:01:23;;;;;;;13.80;7.85;;;;;;;-0.28;50.53;101117.47;4993504;28;20031;-71
2023/02/07 08:03:48;;;;;;;11.40;7.13;;;;;;;-0.32;49.27;101127.22;4989448;28;20464;-70
2023/02/07 08:06:14;;;;;;;12.60;7.25;;;;;;;-0.23;48.20;101120.41;4989434;28;20105;-70
2023/02/07 08:08:39;;;;;;;12.68;7.03;;;;;;;0.26;47.95;101111.56;4993736;28;20029;-70
2023/02/07 08:11:07;;;;;;;12.75;7.65;;;;;;;0.20;48.81;101116.06;4989538;28;20049;-70
2023/02/07 08:13:33;;;;;;;17.85;10.02;;;;;;;0.09;49.46;101119.53;4989792;28;20031;-70
2023/02/07 08:16:00;;;;;;;17.77;8.90;;;;;;;0.24;49.56;101111.78;4989520;28;20049;-70
2023/02/07 08:18:25;;;;;;;11.40;8.13;;;;;;;0.47;48.85;101107.53;4984855;28;20030;-70
2023/02/07 08:20:51;;;;;;;12.68;7.35;;;;;;;0.30;48.62;101118.28;4994039;28;20085;-70
2023/02/07 08:23:16;;;;;;;14.70;8.07;;;;;;;0.96;48.39;101107.63;4993798;28;20061;-70
2023/02/07 08:25:42;;;;;;;12.75;7.20;;;;;;;1.52;48.05;101103.94;4992493;28;20049;-70
2023/02/07 08:28:08;;;;;;;27.75;18.95;;;;;;;1.82;47.13;101103.91;4992914;28;20026;-70
2023/02/07 08:30:34;;;;;;;25.65;8.07;;;;;;;1.81;45.47;101101.38;4993586;28;20041;-70
2023/02/07 08:32:59;;;;;;;10.57;7.00;;;;;;;2.06;45.03;101100.34;4992238;28;20033;-70
2023/02/07 08:35:25;;;;;;;12.82;7.60;;;;;;;1.50;45.32;101103.31;4993631;28;20509;-70
2023/02/07 08:37:51;;;;;;;11.40;6.68;;;;;;;1.69;44.21;101095.84;4991748;28;20034;-70
2023/02/07 08:40:18;;;;;;;13.55;7.05;;;;;;;2.06;42.69;101098.44;4991443;28;20065;-70
2023/02/07 08:42:44;;;;;;;12.70;6.43;;;;;;;2.21;42.56;101103.47;4993333;28;20402;-69
2023/02/07 08:45:10;;;;;;;62.70;30.02;;;;;;;2.33;41.87;101097.97;4983163;28;20109;-71
2023/02/07 08:47:35;;;;;;;14.35;6.95;;;;;;;1.94;41.51;101092.06;4980259;28;20129;-70
2023/02/07 08:50:01;;;;;;;13.38;8.07;;;;;;;1.68;41.32;101094.13;4985071;28;20065;-71
2023/02/07 08:52:26;;;;;;;9.25;5.70;;;;;;;1.74;41.45;101087.69;4993365;28;20077;-70
2023/02/07 08:54:52;;;;;;;9.63;5.97;;;;;;;1.46;39.66;101091.94;4984810;28;20135;-71
2023/02/07 08:57:21;;;;;;;10.25;6.40;;;;;;;1.57;39.86;101083.91;4993235;28;20049;-71
2023/02/07 08:59:47;;;;;;;9.27;5.90;;;;;;;1.97;40.55;101083.28;4986842;28;20027;-71
2023/02/07 09:02:13;;;;;;;10.45;5.38;;;;;;;2.73;37.92;101090.88;4992624;28;20041;-71
2023/02/07 09:04:41;;;;;;;13.95;8.70;;;;;;;2.96;37.65;101083.63;4991949;28;20485;-70
2023/02/07 09:07:07;;;;;;;13.38;5.50;;;;;;;1.94;38.43;101086.53;4984656;28;20040;-71
2023/02/07 09:09:32;;;;;;;6.63;4.68;;;;;;;1.42;38.50;101093.44;4990652;28;20396;-71
2023/02/07 09:11:58;;;;;;;11.23;5.57;;;;;;;0.94;38.50;101098.75;4993465;28;20030;-70
2023/02/07 09:14:23;;;;;;;10.27;5.28;;;;;;;0.41;39.38;101106.53;4990433;28;20074;-70
2023/02/07 09:16:49;;;;;;;15.65;8.30;;;;;;;0.17;41.44;101094.47;4991594;28;20023;-70
2023/02/07 09:19:14;;;;;;;11.27;6.22;;;;;;;0.08;40.96;101110.41;4990694;28;20030;-73
2023/02/07 09:21:40;;;;;;;10.18;6.30;;;;;;;0.13;40.61;101107.84;4990128;28;20034;-70
2023/02/07 09:24:05;;;;;;;9.90;7.13;;;;;;;-0.02;42.24;101110.06;4989245;28;20413;-70
2023/02/07 09:26:33;;;;;;;10.57;7.15;;;;;;;-0.12;41.22;101104.22;4983444;28;20037;-70
2023/02/07 09:28:58;;;;;;;10.30;7.07;;;;;;;-0.19;40.85;101085.88;4986332;28;20481;-72
2023/02/07 09:31:24;;;;;;;11.48;7.35;;;;;;;-0.02;41.33;101091.66;4979243;28;20065;-70
2023/02/07 09:33:50;;;;;;;11.65;7.90;;;;;;;-0.01;41.03;101087.00;4989143;28;20039;-70
2023/02/07 09:36:22;;;;;;;9.82;6.57;;;;;;;0.19;38.85;101092.34;4980589;28;20077;-70
2023/02/07 09:38:47;;;;;;;16.60;7.75;;;;;;;0.54;40.99;101088.19;4989209;28;20064;-71
2023/02/07 09:41:54;;;;;;;16.27;5.47;;;;;;;0.46;39.86;101082.97;4989631;28;20062;-69
2023/02/07 09:44:24;;;;;;;13.27;7.10;;;;;;;0.69;39.93;101074.88;4990416;28;20046;-71
2023/02/07 09:47:04;;;;;;;10.48;6.63;;;;;;;0.82;38.05;101073.88;4978436;28;20521;-72
2023/02/07 09:49:42;;;;;;;7.68;4.18;;;;;;;1.09;36.67;101069.97;4989915;28;20034;-71
2023/02/07 09:52:15;;;;;;;6.28;4.45;;;;;;;1.41;36.32;101058.69;4985154;28;20486;-71
2023/02/07 09:54:44;;;;;;;9.25;4.25;;;;;;;1.66;34.93;101065.94;4977784;28;20030;-71
2023/02/07 09:57:17;;;;;;;8.95;5.22;;;;;;;1.40;35.37;101057.84;4991919;28;20030;-72
2023/02/07 10:00:01;;;;;;;8.60;5.90;;;;;;;1.69;36.72;101057.22;4986170;28;20030;-73
2023/02/07 10:02:43;;;;;;;9.23;4.97;;;;;;;1.58;35.79;101060.78;4986539;28;20054;-72
2023/02/07 10:05:25;;;;;;;7.30;4.93;;;;;;;1.37;35.83;101058.31;4983674;28;20037;-73
2023/02/07 10:07:50;;;;;;;6.90;3.65;;;;;;;1.16;35.10;101042.31;4987206;28;20034;-73
2023/02/07 10:10:23;;;;;;;4.07;3.40;;;;;;;1.94;34.77;101042.38;4990074;28;20025;-72
2023/02/07 10:13:07;;;;;;;5.57;3.72;;;;;;;2.00;33.87;101037.81;4989032;28;20116;-72
2023/02/07 10:16:17;;;;;;;5.72;4.18;;;;;;;2.33;34.30;101031.69;4985804;28;20052;-72
2023/02/07 10:19:03;;;;;;;6.18;4.03;;;;;;;1.98;32.15;101028.91;4984618;28;20070;-73
2023/02/07 10:22:02;;;;;;;5.15;3.53;;;;;;;2.37;31.95;101034.81;4982821;28;20435;-73
2023/02/07 10:24:49;;;;;;;5.43;3.97;;;;;;;2.57;31.87;101017.84;4984807;28;20030;-72
2023/02/07 10:27:29;;;;;;;6.65;4.53;;;;;;;2.12;33.09;101024.88;4991661;28;20465;-72
2023/02/07 10:30:01;;;;;;;7.43;4.43;;;;;;;2.59;32.15;101023.97;4978621;28;20467;-73
2023/02/07 10:32:30;;;;;;;7.97;4.18;;;;;;;2.67;33.56;101026.34;4989017;28;20113;-69
2023/02/07 10:35:01;;;;;;;12.77;6.40;;;;;;;2.05;34.87;101025.00;4985995;28;20034;-70
2023/02/07 10:37:34;;;;;;;15.32;8.27;;;;;;;2.12;35.19;101024.88;4987704;28;20041;-69
2023/02/07 10:40:06;;;;;;;10.02;5.32;;;;;;;1.91;34.85;101013.34;4991203;28;20509;-70
2023/02/07 10:42:35;;;;;;;10.32;6.68;;;;;;;2.53;35.78;101017.50;4976553;28;20034;-70
2023/02/07 10:45:01;;;;;;;11.88;7.18;;;;;;;2.20;36.08;101021.72;4987765;28;20057;-71
2023/02/07 10:47:28;;;;;;;8.63;5.50;;;;;;;2.55;36.50;101017.25;4987089;28;20082;-73
2023/02/07 10:49:55;;;;;;;12.80;6.47;;;;;;;2.89;35.31;101014.63;4988451;28;20031;-72
2023/02/07 10:52:35;;;;;;;13.18;7.18;;;;;;;3.21;34.33;101018.84;4989007;28;20073;-71
2023/02/07 10:55:05;;;;;;;8.68;5.13;;;;;;;2.64;33.70;101004.72;4979477;28;20525;-72
2023/02/07 10:57:31;;;;;;;18.50;8.05;;;;;;;2.29;35.56;101007.56;4987426;28;20042;-72
2023/02/07 11:00:11;;;;;;;13.35;5.85;;;;;;;1.70;35.41;101014.75;4985308;28;20432;-72
2023/02/07 11:02:47;;;;;;;13.13;6.55;;;;;;;1.35;36.19;101012.75;4984961;28;20037;-70
2023/02/07 11:05:15;;;;;;;19.30;6.43;;;;;;;1.22;36.66;101003.63;4984118;28;20027;-75
2023/02/07 11:07:58;;;;;;;18.98;7.03;;;;;;;1.17;36.26;101000.72;4987029;28;20026;-78
2023/02/07 11:10:32;;;;;;;14.27;7.10;;;;;;;1.54;36.81;101003.31;4984366;28;20497;-75
2023/02/07 11:12:59;;;;;;;7.63;4.65;;;;;;;1.78;35.27;100997.84;4984575;28;20022;-74
2023/02/07 11:15:51;;;;;;;18.08;8.10;;;;;;;1.49;35.76;101000.44;4988848;28;20022;-73
2023/02/07 11:18:36;;;;;;;6.35;4.35;;;;;;;1.76;35.40;100994.47;4991552;28;20092;-73
2023/02/07 11:21:33;;;;;;;9.55;4.75;;;;;;;2.11;34.15;100992.78;4993244;28;20041;-73
2023/02/07 11:24:03;;;;;;;9.77;4.95;;;;;;;1.99;33.23;100987.28;4989867;28;20022;-73
2023/02/07 11:26:30;;;;;;;13.65;6.95;;;;;;;2.04;33.34;100986.56;4992106;28;20023;-73
2023/02/07 11:29:13;;;;;;;8.93;5.75;;;;;;;1.98;34.25;100969.06;4994005;28;20070;-73